Terminal Aerodrome Forecast
Issued by NWS

Home | Current Version | Previous Version | Graphics & Text | Print | Product List | Glossary On
Versions: 1 2 3 4 5 6 7 8 9 10 11 12 13 14 15 16 17 18 19 20 21 22 23
000
FTUS43 KGRB 012200 AAA
TAFATW
TAF AMD
KATW 012218Z 0122/0218 23005KT P6SM SCT050 SCT080
      TEMPO 0122/0124 3SM -TSRA SCT030 BKN050CB
     FM020000 12004KT P6SM VCSH SCT050 SCT100
     FM020400 02003KT P6SM SCT100
      TEMPO 0208/0212 3SM BR
     FM021400 04005KT P6SM SCT050 SCT080=

USA.gov is the U.S. government's official web portal to all federal, state and local government web resources and services.